Time;durP1;ratioP1;P1;durP2;ratioP2;P2;SDS_P1;SDS_P2;PMS_P1;PMS_P2;Temp;Humidity;BMP_temperature;BMP_pressure;BME280_temperature;BME280_humidity;BME280_pressure;Samples;Min_cycle;Max_cycle;Signal;HPM_P1;HPM_P2
2022/01/23 00:02:14;;;;;;;5.37;5.05;;;;;;;4.07;100.00;103069.28;4408205;32;20072;-74
2022/01/23 00:04:39;;;;;;;3.78;3.58;;;;;;;3.93;100.00;103064.81;4402930;32;20087;-73
2022/01/23 00:07:07;;;;;;;5.15;4.95;;;;;;;4.02;100.00;103078.75;4402638;32;20303;-72
2022/01/23 00:09:33;;;;;;;3.72;3.53;;;;;;;4.08;100.00;103078.84;4411847;32;20068;-73
2022/01/23 00:12:02;;;;;;;5.03;4.68;;;;;;;4.06;100.00;103084.00;4403453;32;20612;-72
2022/01/23 00:17:20;;;;;;;4.72;4.53;;;;;;;4.13;100.00;103084.94;4412271;32;20510;-72
2022/01/23 00:19:50;;;;;;;3.50;3.40;;;;;;;4.10;100.00;103087.53;4403337;32;20069;-73
2022/01/23 00:22:16;;;;;;;4.47;4.18;;;;;;;4.09;100.00;103086.66;4399507;32;20067;-73
2022/01/23 00:30:27;;;;;;;3.80;3.67;;;;;;;4.05;100.00;103083.97;4413780;32;20292;-73
2022/01/23 00:32:53;;;;;;;3.50;3.30;;;;;;;2.83;100.00;102884.09;4400244;32;20083;-73
2022/01/23 00:35:19;;;;;;;4.75;4.55;;;;;;;4.08;100.00;103079.72;4407860;32;20094;-73
2022/01/23 00:37:44;;;;;;;3.22;3.12;;;;;;;4.02;100.00;103070.97;4402763;32;20069;-73
2022/01/23 00:40:10;;;;;;;5.55;5.30;;;;;;;3.99;100.00;103066.63;4404356;32;20057;-72
2022/01/23 00:42:35;;;;;;;3.80;3.60;;;;;;;3.99;100.00;103064.00;4397576;32;20399;-74
2022/01/23 00:45:24;;;;;;;5.65;5.37;;;;;;;3.98;100.00;103063.13;4403028;32;20060;-73
2022/01/23 00:47:49;;;;;;;4.70;3.92;;;;;;;4.00;100.00;103055.34;4416207;32;20202;-72
2022/01/23 00:50:15;;;;;;;4.03;3.83;;;;;;;4.00;100.00;103053.63;4396048;32;20469;-73
2022/01/23 00:52:40;;;;;;;4.28;3.97;;;;;;;2.80;100.00;102859.88;4408483;32;20080;-74
2022/01/23 00:55:06;;;;;;;4.47;4.28;;;;;;;3.57;100.00;102998.50;4405479;32;20091;-72
2022/01/23 00:57:33;;;;;;;4.28;4.07;;;;;;;3.87;100.00;103053.44;4392652;32;20056;-73
2022/01/23 00:59:58;;;;;;;5.35;5.07;;;;;;;3.89;100.00;103049.12;4400318;32;20096;-72
2022/01/23 01:02:24;;;;;;;3.83;3.62;;;;;;;3.90;100.00;103045.69;4402891;32;20088;-73
2022/01/23 01:04:49;;;;;;;4.12;3.92;;;;;;;3.30;100.00;102961.78;4406569;32;20172;-74
2022/01/23 01:07:14;;;;;;;4.03;3.83;;;;;;;3.87;100.00;103040.44;4391146;32;20138;-73
2022/01/23 01:09:40;;;;;;;3.70;3.58;;;;;;;3.78;100.00;103023.03;4402754;32;20091;-73
2022/01/23 01:12:09;;;;;;;4.97;4.78;;;;;;;3.86;100.00;103047.37;4397620;32;20075;-73
2022/01/23 01:15:01;;;;;;;3.75;3.45;;;;;;;3.86;100.00;103055.16;4400511;32;20567;-73
2022/01/23 01:30:07;;;;;;;3.30;3.20;;;;;;;3.81;100.00;103036.06;4401304;32;20167;-73
2022/01/23 01:34:02;;;;;;;3.10;3.00;;;;;;;3.83;100.00;103051.66;4413478;32;20067;-71
2022/01/23 01:38:53;;;;;;;4.62;4.28;;;;;;;3.87;100.00;103049.12;4412812;32;20087;-73
2022/01/23 01:41:18;;;;;;;3.70;3.50;;;;;;;3.61;100.00;103009.81;4410512;32;20083;-73
2022/01/23 01:43:45;;;;;;;3.62;3.53;;;;;;;3.62;100.00;103001.16;4405529;32;20151;-73
2022/01/23 01:46:10;;;;;;;4.22;4.03;;;;;;;3.17;100.00;102930.47;4407308;32;20155;-74
2022/01/23 01:48:36;;;;;;;6.43;3.62;;;;;;;3.89;100.00;103050.03;4406954;32;20379;-74
2022/01/23 01:51:03;;;;;;;5.93;5.28;;;;;;;3.87;100.00;103051.72;4400998;32;20088;-73
2022/01/23 01:53:28;;;;;;;4.47;4.18;;;;;;;3.87;100.00;103054.31;4410181;32;20076;-72
2022/01/23 01:55:56;;;;;;;3.70;3.50;;;;;;;3.90;100.00;103051.75;4410650;32;20072;-72
2022/01/23 01:58:44;;;;;;;4.65;4.43;;;;;;;3.89;100.00;103047.44;4412620;32;20393;-73
2022/01/23 02:02:45;;;;;;;4.95;4.65;;;;;;;3.84;100.00;103043.87;4416323;32;20056;-74
2022/01/23 02:09:27;;;;;;;3.50;3.40;;;;;;;3.80;100.00;103050.75;4410755;32;20536;-72
2022/01/23 02:15:12;;;;;;;3.35;3.17;;;;;;;3.87;100.00;103048.22;4418217;32;20074;-74
2022/01/23 02:23:21;;;;;;;4.10;3.90;;;;;;;3.71;100.00;102997.81;4412597;32;20862;-73
2022/01/23 02:55:35;;;;;;;3.40;3.30;;;;;;;3.81;100.00;103036.06;4411269;32;20179;-76
2022/01/23 02:58:01;;;;;;;4.53;4.32;;;;;;;3.83;100.00;103036.97;4407262;32;20077;-73
2022/01/23 03:00:33;;;;;;;3.12;3.03;;;;;;;3.78;100.00;103039.47;4413779;32;20681;-74
2022/01/23 03:03:05;;;;;;;;;;;;;;;3.79;100.00;103032.56;4440123;32;20420;-72
2022/01/23 03:10:29;;;;;;;3.28;3.17;;;;;;;3.76;100.00;103019.53;4410727;32;20064;-73
2022/01/23 03:15:58;;;;;;;4.40;3.90;;;;;;;3.77;100.00;103022.16;4419976;32;20615;-72
2022/01/23 03:26:50;;;;;;;4.00;3.70;;;;;;;3.55;100.00;103012.34;4411483;32;20100;-73
2022/01/23 03:29:27;;;;;;;3.00;2.90;;;;;;;3.49;100.00;102996.63;4410595;32;21220;-73
2022/01/23 03:34:19;;;;;;;3.50;3.30;;;;;;;3.72;100.00;103039.38;4408656;32;20088;-73
2022/01/23 03:36:45;;;;;;;3.30;3.20;;;;;;;3.71;100.00;103042.84;4410250;32;20081;-74
2022/01/23 03:39:10;;;;;;;5.85;5.50;;;;;;;2.97;100.00;102913.72;4411520;32;20619;-74
2022/01/23 03:41:43;;;;;;;2.92;2.83;;;;;;;3.65;100.00;103039.28;4411788;32;20067;-74
2022/01/23 03:44:09;;;;;;;6.53;6.22;;;;;;;3.62;100.00;103034.06;4421694;32;20067;-73
2022/01/23 03:49:32;;;;;;;3.90;3.72;;;;;;;3.58;100.00;103036.59;4412086;32;20980;-72
2022/01/23 03:52:05;;;;;;;5.00;4.60;;;;;;;3.39;100.00;103004.31;4414092;32;20072;-73
2022/01/23 03:54:30;;;;;;;;;;;;;;;3.59;100.00;103034.88;4410534;32;20534;-72
2022/01/23 03:56:57;;;;;;;4.43;4.22;;;;;;;3.16;100.00;102972.81;4419226;32;19964;-73
2022/01/23 03:59:22;;;;;;;3.22;3.12;;;;;;;3.61;100.00;103043.56;4408087;32;20524;-72
2022/01/23 04:01:47;;;;;;;3.75;3.58;;;;;;;3.07;100.00;102956.25;4419509;32;20104;-71
2022/01/23 04:07:21;;;;;;;4.30;4.10;;;;;;;3.36;100.00;103019.81;4408485;32;20091;-73
2022/01/23 04:09:47;;;;;;;4.18;3.97;;;;;;;2.46;100.00;102870.56;4405793;32;20075;-73
2022/01/23 04:12:28;;;;;;;8.82;6.28;;;;;;;3.64;100.00;103068.69;4415481;32;20543;-73
2022/01/23 04:15:05;;;;;;;4.28;3.97;;;;;;;3.55;100.00;103057.34;4409312;32;20101;-72
2022/01/23 04:20:35;;;;;;;4.20;4.00;;;;;;;3.59;100.00;103066.03;4416928;32;20064;-73
2022/01/23 04:33:49;;;;;;;3.65;3.55;;;;;;;3.57;100.00;103073.81;4412003;32;20086;-74
2022/01/23 05:00:53;;;;;;;3.83;3.62;;;;;;;3.59;100.00;103077.28;4413637;32;20813;-75
2022/01/23 05:04:04;;;;;;;4.00;3.80;;;;;;;3.61;100.00;103072.12;4402939;32;20084;-73
2022/01/23 05:06:21;;;;;;;4.95;4.65;;;;;;;3.64;100.00;103071.31;4411489;32;21135;-72
2022/01/23 05:08:47;;;;;;;4.50;4.30;;;;;;;3.62;100.00;103070.41;4411787;32;20488;-72
2022/01/23 05:11:13;;;;;;;4.43;4.22;;;;;;;3.61;100.00;103085.13;4406088;32;20466;-72
2022/01/23 05:13:38;;;;;;;3.30;3.20;;;;;;;2.68;100.00;102923.62;4408845;32;20068;-75
2022/01/23 05:16:04;;;;;;;4.68;4.28;;;;;;;3.55;100.00;103067.72;4414799;32;20060;-71
2022/01/23 05:18:30;;;;;;;6.53;3.67;;;;;;;3.61;100.00;103074.72;4407172;32;20421;-73
2022/01/23 05:23:39;;;;;;;3.83;3.62;;;;;;;3.37;100.00;103039.75;4409015;32;20078;-74
2022/01/23 05:26:04;;;;;;;4.90;4.70;;;;;;;3.56;100.00;103063.38;4393106;32;20068;-75
2022/01/23 05:28:30;;;;;;;3.33;3.17;;;;;;;3.39;100.00;103026.81;4395322;32;20809;-73
2022/01/23 05:30:55;;;;;;;3.67;3.53;;;;;;;3.53;100.00;103060.75;4404286;32;20072;-73
2022/01/23 05:33:21;;;;;;;7.60;4.25;;;;;;;3.59;100.00;103066.91;4407871;32;20092;-75
2022/01/23 05:35:46;;;;;;;3.65;3.55;;;;;;;3.39;100.00;103024.22;4408584;32;20165;-73
2022/01/23 05:38:12;;;;;;;5.78;5.47;;;;;;;3.62;100.00;103063.47;4408193;32;20993;-73
2022/01/23 05:40:39;;;;;;;3.45;3.35;;;;;;;3.62;100.00;103075.59;4400845;32;20118;-73
2022/01/23 05:43:04;;;;;;;4.78;4.47;;;;;;;3.63;100.00;103066.94;4395515;32;20088;-75
2022/01/23 05:45:29;;;;;;;3.85;3.65;;;;;;;3.63;100.00;103064.34;4406821;32;20076;-72
2022/01/23 05:47:55;;;;;;;4.40;4.03;;;;;;;3.65;100.00;103070.44;4402869;32;20092;-73
2022/01/23 05:50:20;;;;;;;3.72;3.53;;;;;;;3.44;100.00;103035.50;4403866;32;20068;-75
2022/01/23 05:52:46;;;;;;;3.08;2.97;;;;;;;3.64;100.00;103074.75;4410055;32;20061;-74
2022/01/23 05:55:13;;;;;;;4.90;4.57;;;;;;;3.64;100.00;103079.09;4404072;32;20061;-75
2022/01/23 05:57:38;;;;;;;3.40;3.30;;;;;;;3.64;100.00;103081.69;4416953;32;20061;-74
2022/01/23 06:00:05;;;;;;;3.05;2.95;;;;;;;2.80;100.00;102949.75;4409148;32;20068;-76
2022/01/23 06:02:30;;;;;;;3.00;2.90;;;;;;;3.46;100.00;103064.09;4420330;32;20175;-75
2022/01/23 06:04:55;;;;;;;3.58;3.45;;;;;;;3.62;100.00;103091.19;4403411;32;20101;-75
2022/01/23 06:07:21;;;;;;;3.40;3.30;;;;;;;3.62;100.00;103089.44;4416090;32;20057;-72
2022/01/23 06:09:46;;;;;;;3.50;3.40;;;;;;;3.62;100.00;103085.97;4414796;32;20098;-75
2022/01/23 06:12:11;;;;;;;4.07;3.87;;;;;;;3.51;100.00;103075.44;4415503;32;20069;-74
2022/01/23 06:14:37;;;;;;;3.47;3.37;;;;;;;3.61;100.00;103087.72;4415946;32;20080;-75
2022/01/23 06:17:02;;;;;;;3.33;3.22;;;;;;;2.90;100.00;102964.63;4424783;32;20087;-75
2022/01/23 06:19:28;;;;;;;3.33;3.22;;;;;;;3.60;100.00;103088.53;4410966;32;20065;-73
2022/01/23 06:21:53;;;;;;;8.85;4.30;;;;;;;3.62;100.00;103091.19;4413265;32;20091;-73
2022/01/23 06:24:26;;;;;;;3.83;3.62;;;;;;;3.63;100.00;103090.31;4409816;32;20068;-73
2022/01/23 06:26:53;;;;;;;3.83;3.65;;;;;;;2.49;100.00;102925.91;4411977;32;20086;-72
2022/01/23 06:29:19;;;;;;;4.93;4.55;;;;;;;3.27;100.00;103026.59;4412302;32;20162;-73
2022/01/23 06:31:47;;;;;;;3.58;3.47;;;;;;;3.57;100.00;103076.41;4407365;32;20088;-72
2022/01/23 06:34:13;;;;;;;4.60;4.40;;;;;;;2.70;100.00;102925.41;4398952;32;20523;-74
2022/01/23 06:36:39;;;;;;;4.53;4.32;;;;;;;2.74;100.00;102939.28;4398417;32;20145;-72
2022/01/23 06:39:06;;;;;;;5.00;4.78;;;;;;;3.61;100.00;103092.91;4396327;32;20576;-72
2022/01/23 06:41:31;;;;;;;4.47;4.15;;;;;;;3.62;100.00;103094.63;4396374;32;20100;-73
2022/01/23 06:43:57;;;;;;;5.80;5.30;;;;;;;3.51;100.00;103072.84;4395519;32;20147;-74
2022/01/23 06:46:22;;;;;;;3.78;3.58;;;;;;;3.62;100.00;103104.16;4395417;32;20099;-74
2022/01/23 06:48:47;;;;;;;3.55;3.45;;;;;;;3.61;100.00;103100.69;4404844;32;20143;-72
2022/01/23 06:51:13;;;;;;;4.95;4.75;;;;;;;3.54;100.00;103101.44;4407306;32;20096;-73
2022/01/23 06:53:38;;;;;;;3.50;3.35;;;;;;;3.47;100.00;103090.09;4415961;32;20080;-73
2022/01/23 06:56:04;;;;;;;6.10;5.55;;;;;;;3.62;100.00;103112.81;4431619;32;20115;-75
2022/01/23 06:58:29;;;;;;;3.70;3.50;;;;;;;3.62;100.00;103111.94;4408296;32;20090;-73
2022/01/23 07:00:54;;;;;;;4.47;4.20;;;;;;;3.62;100.00;103106.75;4414406;32;20084;-73
2022/01/23 07:03:20;;;;;;;3.78;3.58;;;;;;;3.64;100.00;103105.06;4403425;32;20095;-73
2022/01/23 07:05:45;;;;;;;3.50;3.40;;;;;;;3.66;100.00;103100.75;4418600;32;20072;-73
2022/01/23 07:08:10;;;;;;;4.55;4.35;;;;;;;3.67;100.00;103111.19;4408750;32;20918;-74
2022/01/23 07:10:36;;;;;;;3.25;3.15;;;;;;;3.67;100.00;103115.47;4414104;32;20076;-72
2022/01/23 07:13:01;;;;;;;4.22;4.03;;;;;;;3.40;100.00;103077.84;4406932;32;20092;-71
2022/01/23 07:15:27;;;;;;;5.60;4.05;;;;;;;3.65;100.00;103123.25;4401653;32;21611;-71
2022/01/23 07:17:55;;;;;;;4.53;3.65;;;;;;;3.59;100.00;103117.97;4403182;32;20080;-72
2022/01/23 07:20:21;;;;;;;4.20;3.78;;;;;;;3.64;100.00;103126.69;4419674;32;20095;-74
2022/01/23 07:22:46;;;;;;;4.05;3.85;;;;;;;3.65;100.00;103125.84;4409054;32;20857;-74
2022/01/23 07:25:11;;;;;;;5.75;5.35;;;;;;;3.66;100.00;103121.53;4406426;32;20079;-73
2022/01/23 07:27:43;;;;;;;3.83;3.65;;;;;;;3.66;100.00;103131.91;4393521;32;20652;-72
2022/01/23 07:30:21;;;;;;;4.60;4.40;;;;;;;3.68;100.00;103122.44;4399450;32;20072;-71
2022/01/23 07:32:46;;;;;;;3.30;3.20;;;;;;;3.69;100.00;103138.03;4395778;32;20076;-71
2022/01/23 07:35:11;;;;;;;5.00;4.80;;;;;;;3.70;100.00;103124.19;4404518;32;20633;-71
2022/01/23 07:37:37;;;;;;;3.72;3.50;;;;;;;3.68;100.00;103128.47;4405347;32;20083;-70
2022/01/23 07:40:02;;;;;;;5.15;4.95;;;;;;;3.68;100.00;103138.87;4414583;32;20072;-72
2022/01/23 07:42:28;;;;;;;6.28;3.65;;;;;;;3.68;100.00;103136.28;4408077;32;20077;-71
2022/01/23 07:44:53;;;;;;;4.37;4.18;;;;;;;2.91;100.00;103005.28;4403972;32;20222;-73
2022/01/23 07:47:22;;;;;;;4.07;3.87;;;;;;;3.58;100.00;103114.47;4398207;32;21449;-71
2022/01/23 07:49:49;;;;;;;3.30;3.20;;;;;;;3.69;100.00;103160.50;4405955;32;20076;-73
2022/01/23 07:52:15;;;;;;;6.05;5.75;;;;;;;3.72;100.00;103140.66;4403871;32;20104;-73
2022/01/23 07:54:41;;;;;;;3.85;3.65;;;;;;;3.67;100.00;103139.75;4400296;32;20089;-73
2022/01/23 07:57:06;;;;;;;4.87;4.68;;;;;;;3.74;100.00;103148.50;4402427;32;20091;-73
2022/01/23 07:59:31;;;;;;;3.60;3.50;;;;;;;3.75;100.00;103145.94;4399740;32;20351;-71
2022/01/23 08:01:57;;;;;;;4.43;4.22;;;;;;;3.77;100.00;103143.38;4401452;32;20534;-72
2022/01/23 08:04:22;;;;;;;3.87;3.72;;;;;;;3.75;100.00;103150.25;4404288;32;20142;-71
2022/01/23 08:06:54;;;;;;;3.83;3.70;;;;;;;3.78;100.00;103150.28;4407012;32;20531;-71
2022/01/23 08:09:20;;;;;;;3.22;3.12;;;;;;;3.83;100.00;103155.53;4405538;32;20064;-72
2022/01/23 08:11:45;;;;;;;3.20;3.10;;;;;;;3.82;100.00;103159.00;4396375;32;20906;-72
2022/01/23 08:14:10;;;;;;;4.75;4.55;;;;;;;3.80;100.00;103158.97;4405428;32;20080;-72
2022/01/23 08:16:36;;;;;;;3.47;3.30;;;;;;;3.75;100.00;103155.44;4404449;32;20572;-74
2022/01/23 08:19:01;;;;;;;5.20;4.90;;;;;;;3.75;100.00;103147.66;4419525;32;20133;-73
2022/01/23 08:21:26;;;;;;;4.32;4.03;;;;;;;3.89;100.00;103169.53;4418856;32;20135;-71
2022/01/23 08:23:53;;;;;;;4.20;3.95;;;;;;;3.88;100.00;103172.09;4412954;32;20080;-72
2022/01/23 08:26:20;;;;;;;3.62;3.53;;;;;;;3.91;100.00;103173.00;4397093;32;20134;-72
2022/01/23 08:28:46;;;;;;;29.45;4.55;;;;;;;3.55;100.00;103103.19;4410058;32;20436;-74
2022/01/23 08:31:11;;;;;;;4.90;4.70;;;;;;;3.95;100.00;103185.19;4406313;32;20909;-71
2022/01/23 08:33:36;;;;;;;4.95;4.65;;;;;;;3.93;100.00;103173.91;4407661;32;20076;-72
2022/01/23 08:36:02;;;;;;;5.85;5.55;;;;;;;3.05;100.00;103021.06;4406200;32;20072;-72
2022/01/23 08:38:27;;;;;;;4.22;4.03;;;;;;;3.85;100.00;103154.75;4406071;32;20061;-73
2022/01/23 08:43:36;;;;;;;3.78;3.58;;;;;;;4.06;100.00;103187.09;4409083;32;20441;-74
2022/01/23 08:46:02;;;;;;;5.05;4.85;;;;;;;4.09;100.00;103192.31;4405419;32;20766;-71
2022/01/23 08:48:27;;;;;;;3.70;3.50;;;;;;;4.11;100.00;103191.50;4398468;32;20072;-72
2022/01/23 08:50:52;;;;;;;4.25;4.05;;;;;;;4.13;100.00;103187.19;4408593;32;20068;-72
2022/01/23 08:53:18;;;;;;;3.20;3.10;;;;;;;4.11;100.00;103190.59;4405635;32;20079;-72
2022/01/23 08:55:43;;;;;;;3.58;3.45;;;;;;;4.12;100.00;103187.16;4409105;32;20550;-72
2022/01/23 08:58:08;;;;;;;5.03;4.82;;;;;;;4.21;100.00;103202.91;4405021;32;20123;-71
2022/01/23 09:00:34;;;;;;;3.15;3.05;;;;;;;4.25;100.00;103201.22;4412569;32;20068;-71
2022/01/23 09:02:59;;;;;;;5.05;4.85;;;;;;;4.20;100.00;103186.41;4404575;32;20582;-71
2022/01/23 09:05:25;;;;;;;3.25;3.15;;;;;;;4.29;100.00;103203.00;4410881;32;20099;-73
2022/01/23 09:07:51;;;;;;;3.83;3.62;;;;;;;4.33;100.00;103200.50;4406548;32;20073;-72
2022/01/23 09:10:24;;;;;;;4.47;4.25;;;;;;;4.39;100.00;103204.91;4398281;32;20090;-73
2022/01/23 09:13:04;;;;;;;3.42;3.33;;;;;;;3.89;100.00;103122.75;4410000;32;20122;-73
2022/01/23 09:15:30;;;;;;;3.87;3.67;;;;;;;4.39;100.00;103181.50;4406934;32;20099;-71
2022/01/23 09:17:56;;;;;;;3.50;3.37;;;;;;;4.45;100.00;103185.87;4401072;32;20812;-71
2022/01/23 09:20:21;;;;;;;3.92;3.72;;;;;;;4.44;100.00;103177.22;4388449;32;20083;-73
2022/01/23 09:22:46;;;;;;;4.12;3.92;;;;;;;4.18;100.00;103138.75;4407055;32;20085;-72
2022/01/23 09:25:12;;;;;;;5.25;5.05;;;;;;;4.09;100.00;103122.16;4407306;32;20287;-74
2022/01/23 09:27:39;;;;;;;3.72;3.60;;;;;;;4.40;100.00;103176.31;4395436;32;20130;-72
2022/01/23 09:30:16;;;;;;;4.95;4.75;;;;;;;4.43;100.00;103172.00;4393272;32;20064;-71
2022/01/23 09:32:42;;;;;;;3.78;3.58;;;;;;;4.18;100.00;103133.53;4402051;32;20836;-73
2022/01/23 09:35:11;;;;;;;4.75;4.55;;;;;;;4.39;100.00;103181.50;4410158;32;20200;-74
2022/01/23 09:37:36;;;;;;;4.10;3.90;;;;;;;4.09;100.00;103127.34;4409145;32;20060;-72
2022/01/23 09:40:02;;;;;;;5.30;5.10;;;;;;;4.43;100.00;103190.19;4408391;32;20101;-73
2022/01/23 09:42:33;;;;;;;4.20;4.00;;;;;;;4.45;100.00;103192.00;4405732;32;20114;-73
2022/01/23 09:45:04;;;;;;;3.92;3.78;;;;;;;4.52;100.00;103190.34;4414429;32;20117;-71
2022/01/23 09:47:29;;;;;;;4.00;3.80;;;;;;;4.27;100.00;103150.12;4412874;32;20087;-72
2022/01/23 09:49:55;;;;;;;3.95;3.67;;;;;;;4.58;100.00;103193.00;4413135;32;20445;-72
2022/01/23 09:52:21;;;;;;;3.72;3.53;;;;;;;4.63;100.00;103199.16;4396508;32;20077;-73
2022/01/23 09:54:55;;;;;;;3.65;3.53;;;;;;;4.63;100.00;103199.16;4409220;32;20069;-73
2022/01/23 09:57:24;;;;;;;3.65;3.55;;;;;;;4.62;100.00;103207.81;4404163;32;20087;-72
2022/01/23 09:59:52;;;;;;;3.72;3.50;;;;;;;4.56;100.00;103206.00;4409220;32;20065;-71
2022/01/23 10:02:17;;;;;;;3.70;3.50;;;;;;;4.09;100.00;103117.84;4400676;32;20867;-73
2022/01/23 10:04:43;;;;;;;3.45;3.35;;;;;;;4.68;100.00;103205.28;4410582;32;20076;-71
2022/01/23 10:07:08;;;;;;;5.32;5.05;;;;;;;4.75;100.00;103206.22;4398169;32;20182;-71
2022/01/23 10:09:35;;;;;;;3.67;3.53;;;;;;;4.80;100.00;103210.63;4411992;32;20605;-72
2022/01/23 10:12:00;;;;;;;5.18;4.97;;;;;;;4.77;100.00;103196.69;4388570;32;20221;-72
2022/01/23 10:14:26;;;;;;;4.10;3.90;;;;;;;4.78;100.00;103216.69;4397748;32;20504;-73
2022/01/23 10:16:51;;;;;;;3.62;3.42;;;;;;;4.72;100.00;103203.59;4412365;32;20088;-74
2022/01/23 10:19:16;;;;;;;4.45;4.25;;;;;;;4.40;100.00;103162.44;4404866;32;20556;-73
2022/01/23 10:21:43;;;;;;;4.07;3.87;;;;;;;4.68;100.00;103205.28;4407947;32;20340;-73
2022/01/23 10:24:10;;;;;;;4.93;4.72;;;;;;;4.73;100.00;103206.22;4401310;32;20178;-70
2022/01/23 10:26:48;;;;;;;3.55;3.42;;;;;;;4.78;100.00;103212.34;4410002;32;20779;-72
2022/01/23 10:29:36;;;;;;;4.47;4.28;;;;;;;4.81;100.00;103208.88;4402328;32;20662;-72
2022/01/23 10:32:11;;;;;;;4.87;4.68;;;;;;;3.90;100.00;103079.47;4422335;32;20094;-72
2022/01/23 10:34:56;;;;;;;3.97;3.78;;;;;;;4.75;100.00;103209.72;4405411;32;20202;-71
2022/01/23 10:37:35;;;;;;;4.15;3.95;;;;;;;4.74;100.00;103213.16;4420291;32;20060;-73
2022/01/23 10:40:09;;;;;;;4.93;4.68;;;;;;;4.64;100.00;103198.28;4406027;32;20076;-72
2022/01/23 10:50:50;;;;;;;3.85;3.65;;;;;;;4.84;100.00;103211.53;4409826;32;20283;-73
2022/01/23 10:53:16;;;;;;;3.80;3.62;;;;;;;3.31;100.00;102932.38;4417720;32;20072;-72
2022/01/23 10:55:43;;;;;;;3.50;3.40;;;;;;;4.51;100.00;103131.34;4407661;32;20116;-72
2022/01/23 10:58:18;;;;;;;5.20;4.95;;;;;;;5.03;100.00;103202.22;4389823;32;20333;-71
2022/01/23 11:00:43;;;;;;;4.97;4.68;;;;;;;5.10;100.00;103198.84;4413758;32;20523;-71
2022/01/23 11:03:15;;;;;;;5.85;5.55;;;;;;;5.14;100.00;103198.00;4416473;32;20551;-71
2022/01/23 11:05:41;;;;;;;4.10;3.90;;;;;;;5.18;100.00;103194.56;4424748;32;20088;-72
2022/01/23 11:08:30;;;;;;;5.35;5.07;;;;;;;5.24;100.00;103198.97;4410134;32;20522;-71
2022/01/23 11:10:59;;;;;;;3.40;3.30;;;;;;;4.24;100.00;103020.13;4421863;32;20717;-70
2022/01/23 11:19:19;;;;;;;3.85;3.55;;;;;;;4.68;100.00;103074.34;4415166;32;20068;-71
2022/01/23 11:21:45;;;;;;;3.45;3.35;;;;;;;5.13;100.00;103162.44;4412563;32;20384;-72
2022/01/23 11:24:11;;;;;;;5.15;4.87;;;;;;;5.26;100.00;103183.38;4404837;32;20056;-74
2022/01/23 11:26:37;;;;;;;4.20;4.00;;;;;;;5.31;100.00;103181.69;4395124;32;20088;-73
2022/01/23 11:29:11;;;;;;;5.28;5.07;;;;;;;5.31;100.00;103171.25;4409255;32;20069;-72
2022/01/23 11:31:38;;;;;;;4.57;4.35;;;;;;;4.77;100.00;103126.47;4408073;32;20081;-70
2022/01/23 11:34:05;;;;;;;5.75;5.45;;;;;;;5.07;99.32;103141.56;4407846;32;20084;-75
2022/01/23 11:36:31;;;;;;;3.85;3.65;;;;;;;5.32;100.00;103173.03;4425340;32;20184;-72
2022/01/23 11:39:04;;;;;;;3.78;3.62;;;;;;;5.18;98.57;103171.16;4416622;32;20069;-73
2022/01/23 11:56:23;;;;;;;4.60;4.40;;;;;;;5.50;98.14;103159.31;4432385;32;20075;-73
2022/01/23 11:58:49;;;;;;;3.50;3.40;;;;;;;5.23;97.57;103159.91;4432321;32;20076;-73
2022/01/23 12:01:17;;;;;;;5.10;4.82;;;;;;;5.08;98.86;103142.41;4401677;32;20159;-73
2022/01/23 12:04:05;;;;;;;3.50;3.37;;;;;;;5.10;99.56;103156.31;4396846;32;20068;-73
2022/01/23 12:06:30;;;;;;;4.07;3.87;;;;;;;5.15;99.12;103145.09;4425034;32;20064;-73
2022/01/23 12:09:11;;;;;;;4.07;3.87;;;;;;;5.34;99.91;103158.28;4397821;32;20587;-74
2022/01/23 12:11:42;;;;;;;3.78;3.55;;;;;;;5.31;99.36;103140.03;4433375;32;20233;-72
2022/01/23 12:17:05;;;;;;;3.80;3.70;;;;;;;5.53;99.40;103151.50;4435801;32;20087;-73
2022/01/23 12:19:32;;;;;;;4.47;4.28;;;;;;;5.54;98.50;103148.91;4410717;32;20589;-71
2022/01/23 12:21:59;;;;;;;5.07;4.87;;;;;;;5.37;97.27;103150.50;4393470;32;20080;-74
2022/01/23 12:24:25;;;;;;;4.00;3.80;;;;;;;5.43;97.31;103136.66;4411369;32;20094;-74
2022/01/23 12:26:52;;;;;;;4.20;4.00;;;;;;;5.57;97.65;103138.53;4405504;32;20072;-73
2022/01/23 12:29:24;;;;;;;3.65;3.55;;;;;;;5.68;97.13;103143.81;4400652;32;20577;-74
2022/01/23 12:31:50;;;;;;;3.65;3.55;;;;;;;5.69;97.89;103116.03;4408499;32;20680;-73
2022/01/23 12:34:15;;;;;;;3.65;3.53;;;;;;;5.68;97.13;103122.97;4415263;32;20226;-72
2022/01/23 12:36:41;;;;;;;4.82;4.53;;;;;;;5.83;95.81;103124.81;4409240;32;20577;-73
2022/01/23 12:39:06;;;;;;;6.25;5.95;;;;;;;5.82;96.40;103128.28;4403315;32;20064;-74
2022/01/23 12:41:35;;;;;;;4.22;4.03;;;;;;;5.79;95.37;103123.94;4423344;32;20669;-73
2022/01/23 12:44:07;;;;;;;5.05;4.85;;;;;;;5.86;94.77;103122.22;4406290;32;20091;-73
2022/01/23 12:46:38;;;;;;;3.83;3.70;;;;;;;5.89;95.56;103122.22;4409292;32;20598;-73
2022/01/23 12:49:26;;;;;;;5.25;5.05;;;;;;;5.85;94.53;103125.69;4401891;32;20071;-74
2022/01/23 12:52:09;;;;;;;4.18;3.97;;;;;;;5.78;95.23;103114.34;4404884;32;20076;-71
2022/01/23 12:54:47;;;;;;;4.60;4.40;;;;;;;5.76;94.29;103112.62;4418013;32;20115;-71
2022/01/23 12:57:16;;;;;;;5.93;5.62;;;;;;;5.66;94.61;103095.19;4425397;32;20073;-72
2022/01/23 12:59:42;;;;;;;5.28;4.93;;;;;;;5.53;94.58;103075.97;4420072;32;20060;-72
2022/01/23 13:02:15;;;;;;;5.07;4.87;;;;;;;5.21;94.75;103024.53;4404613;32;20075;-73
2022/01/23 13:04:46;;;;;;;3.70;3.60;;;;;;;5.69;94.58;103114.31;4401343;32;20088;-72
2022/01/23 13:07:24;;;;;;;5.55;5.35;;;;;;;5.70;94.90;103104.75;4393343;32;20076;-74
2022/01/23 13:09:59;;;;;;;4.00;3.80;;;;;;;5.76;94.39;103108.25;4417943;32;20112;-72
2022/01/23 13:12:47;;;;;;;4.00;3.80;;;;;;;5.79;94.35;103112.62;4393083;32;20157;-72
2022/01/23 13:15:25;;;;;;;5.05;4.75;;;;;;;5.84;94.96;103110.94;4411163;32;20602;-73
2022/01/23 13:29:53;;;;;;;4.12;3.92;;;;;;;5.74;95.01;103103.91;4402840;32;20080;-73
2022/01/23 13:32:04;;;;;;;4.18;3.97;;;;;;;5.80;94.54;103096.12;4408970;32;20088;-71
2022/01/23 13:34:31;;;;;;;4.00;3.80;;;;;;;5.85;95.25;103098.75;4394731;32;20112;-71
2022/01/23 13:37:03;;;;;;;3.75;3.60;;;;;;;5.65;95.20;103056.94;4415705;32;20065;-72
2022/01/23 13:39:44;;;;;;;4.15;3.95;;;;;;;5.83;94.06;103093.53;4393296;32;20289;-72
2022/01/23 13:51:17;;;;;;;3.58;3.47;;;;;;;5.83;94.05;103098.75;4424787;32;20164;-72
2022/01/23 13:59:26;;;;;;;4.28;4.07;;;;;;;5.75;93.49;103084.78;4423817;32;20071;-73
2022/01/23 14:02:06;;;;;;;4.30;4.10;;;;;;;5.75;93.18;103080.47;4416195;32;20068;-73
2022/01/23 14:04:43;;;;;;;4.20;3.87;;;;;;;5.85;93.40;103097.00;4410485;32;20314;-74
2022/01/23 14:07:09;;;;;;;3.80;3.70;;;;;;;5.79;93.21;103100.47;4402687;32;20086;-72
2022/01/23 14:09:43;;;;;;;4.72;4.53;;;;;;;4.98;94.08;102965.37;4412032;32;20109;-72
2022/01/23 14:12:10;;;;;;;4.03;3.85;;;;;;;5.75;93.67;103084.78;4400226;32;20076;-75
2022/01/23 14:15:10;;;;;;;4.35;4.15;;;;;;;5.81;92.81;103095.25;4408445;32;20141;-73
2022/01/23 14:17:36;;;;;;;4.90;4.70;;;;;;;5.85;93.96;103096.16;4407611;32;20091;-76
2022/01/23 14:20:05;;;;;;;3.60;3.50;;;;;;;5.86;92.87;103093.56;4406910;32;20100;-73
2022/01/23 14:22:33;;;;;;;4.20;4.00;;;;;;;5.88;92.64;103096.19;4406640;32;20080;-73
2022/01/23 14:25:15;;;;;;;4.37;4.18;;;;;;;5.80;92.95;103102.22;4409259;32;20098;-73
2022/01/23 14:28:07;;;;;;;17.52;16.62;;;;;;;5.57;92.21;103052.56;4396502;32;20194;-74
2022/01/23 14:30:34;;;;;;;3.72;3.60;;;;;;;5.57;92.52;103060.37;4375438;32;20501;-74
2022/01/23 14:33:10;;;;;;;4.30;4.00;;;;;;;5.68;92.93;103093.44;4407182;32;20196;-74
2022/01/23 14:35:35;;;;;;;4.32;4.15;;;;;;;5.26;91.97;103024.56;4408043;32;20077;-73
2022/01/23 14:38:13;;;;;;;4.50;4.30;;;;;;;5.20;92.65;103021.06;4408808;32;20083;-75
2022/01/23 14:40:39;;;;;;;5.05;4.85;;;;;;;5.59;92.19;103096.84;4402334;32;20746;-74
2022/01/23 14:43:09;;;;;;;4.55;4.35;;;;;;;5.49;92.36;103082.00;4409753;32;20080;-73
2022/01/23 14:45:42;;;;;;;4.72;4.53;;;;;;;5.32;92.38;103058.47;4401600;32;20199;-74
2022/01/23 14:48:09;;;;;;;3.60;3.50;;;;;;;5.56;93.24;103092.50;4399445;32;20091;-74
2022/01/23 14:50:39;;;;;;;4.32;4.12;;;;;;;5.24;93.42;103031.50;4393746;32;20165;-74